Woodcote, United Kingdom
Current Conditions -  °F | °C
As of 5:50 PM on Saturday 25 Oct 2014 (Local Time) from EGOS Reporting Station
Rain Showers Rain Showers  
Wind Chill: 52°   Ceiling: Unl
Heat Index: 52°   Visibility: 6mi
Dew Point: 48°   Wind: 17mph
Humidity: 88%   Direction: 240°WSW
Pressure: 29.97"   Gusts: NA
Location:  52.73°N, 2.33°W
Report Text: EGOS 251650Z AUTO 24015KT 9999 -SHRA FEW025/// SCT031/// 11/09 Q1015
Loading
Personal Weather Stations






























Interactive Weather Map New forecast layout! Learn more

10-Day Weather Forecast

Advertisements
Track Severe Weather on mobile